Time;durP1;ratioP1;P1;durP2;ratioP2;P2;SDS_P1;SDS_P2;PMS_P1;PMS_P2;Temp;Humidity;BMP_temperature;BMP_pressure;BME280_temperature;BME280_humidity;BME280_pressure;Samples;Min_cycle;Max_cycle;Signal;HPM_P1;HPM_P2
2023/07/07 00:00:03;;;;;;;3.78;2.97;;;11.60;99.90;;;;;;5027712;28;20033;-54
2023/07/07 00:02:29;;;;;;;4.97;3.13;;;11.60;99.90;;;;;;5048478;28;20040;-52
2023/07/07 00:04:54;;;;;;;4.68;3.10;;;11.50;99.90;;;;;;5025357;28;20151;-54
2023/07/07 00:07:20;;;;;;;3.40;2.70;;;11.50;99.90;;;;;;5048753;28;20043;-54
2023/07/07 00:09:46;;;;;;;4.97;3.35;;;11.50;99.90;;;;;;5027586;28;20021;-53
2023/07/07 00:12:13;;;;;;;4.03;2.72;;;11.40;99.90;;;;;;5048132;28;20029;-55
2023/07/07 00:14:38;;;;;;;4.47;2.60;;;11.40;99.90;;;;;;5026144;28;20037;-55
2023/07/07 00:17:05;;;;;;;4.45;2.60;;;11.30;99.90;;;;;;5047579;28;20029;-49
2023/07/07 00:19:32;;;;;;;4.00;3.20;;;11.30;99.90;;;;;;5037565;28;20029;-55
2023/07/07 00:21:59;;;;;;;4.40;3.15;;;11.30;99.90;;;;;;5028693;28;20033;-56
2023/07/07 00:24:25;;;;;;;3.67;3.10;;;11.30;99.90;;;;;;5045751;28;20033;-53
2023/07/07 00:26:51;;;;;;;5.35;3.65;;;11.20;99.90;;;;;;5027846;28;20048;-55
2023/07/07 00:29:16;;;;;;;3.47;3.08;;;11.20;99.90;;;;;;5045574;28;20053;-56
2023/07/07 00:31:42;;;;;;;5.10;3.25;;;11.20;99.90;;;;;;5048566;28;20389;-54
2023/07/07 00:34:08;;;;;;;3.13;2.47;;;11.10;99.90;;;;;;5034693;28;20025;-53
2023/07/07 00:36:33;;;;;;;3.25;2.95;;;11.10;99.90;;;;;;5049893;28;20389;-55
2023/07/07 00:38:59;;;;;;;3.67;2.88;;;11.10;99.90;;;;;;5037150;28;20029;-54
2023/07/07 00:41:24;;;;;;;3.90;2.97;;;11.00;99.90;;;;;;5052284;28;20112;-54
2023/07/07 00:44:08;;;;;;;5.00;2.88;;;11.00;99.90;;;;;;5035722;28;20431;-56
2023/07/07 00:46:36;;;;;;;3.58;3.05;;;11.00;99.90;;;;;;5051935;28;20037;-54
2023/07/07 00:49:06;;;;;;;4.65;3.08;;;10.90;99.90;;;;;;5036924;28;20029;-56
2023/07/07 00:51:32;;;;;;;4.95;3.20;;;10.90;99.90;;;;;;5051892;28;20396;-56
2023/07/07 00:53:58;;;;;;;3.88;2.90;;;10.90;99.90;;;;;;5030653;28;20033;-55
2023/07/07 00:56:31;;;;;;;4.88;3.45;;;10.90;99.90;;;;;;5032038;28;20076;-56
2023/07/07 00:59:02;;;;;;;5.88;3.30;;;10.80;99.90;;;;;;5043966;28;20531;-54
2023/07/07 01:01:28;;;;;;;5.90;3.45;;;10.80;99.90;;;;;;5031999;28;20083;-54
2023/07/07 01:03:57;;;;;;;4.32;3.13;;;10.80;99.90;;;;;;5049174;28;20041;-54
2023/07/07 01:06:29;;;;;;;6.93;3.42;;;10.80;99.90;;;;;;5045785;28;20060;-55
2023/07/07 01:09:00;;;;;;;5.20;3.47;;;10.70;99.90;;;;;;5015767;28;20037;-54
2023/07/07 01:11:27;;;;;;;4.07;3.10;;;10.70;99.90;;;;;;5030505;28;20451;-53
2023/07/07 01:13:54;;;;;;;4.10;3.38;;;10.70;99.90;;;;;;5043584;28;20037;-53
2023/07/07 01:16:32;;;;;;;4.10;3.28;;;10.70;99.90;;;;;;5031811;28;20033;-55
2023/07/07 01:19:19;;;;;;;3.90;2.90;;;10.60;99.90;;;;;;5016065;28;20060;-55
2023/07/07 01:22:19;;;;;;;5.15;3.45;;;10.60;99.90;;;;;;5031633;28;20146;-56
2023/07/07 01:25:23;;;;;;;3.97;2.72;;;10.60;99.90;;;;;;5022228;28;20126;-53
2023/07/07 01:28:31;;;;;;;5.93;3.17;;;10.50;99.90;;;;;;5011722;28;20030;-54
2023/07/07 01:31:03;;;;;;;5.47;3.20;;;10.50;99.90;;;;;;4969682;28;20656;-55
2023/07/07 01:33:31;;;;;;;4.65;3.40;;;10.50;99.90;;;;;;5047371;28;20627;-56
2023/07/07 01:35:57;;;;;;;6.10;3.60;;;10.50;99.90;;;;;;5031349;28;20032;-53
2023/07/07 01:38:32;;;;;;;4.05;3.47;;;10.40;99.90;;;;;;5047207;28;20040;-55
2023/07/07 01:41:26;;;;;;;4.00;3.10;;;10.50;99.90;;;;;;5031238;28;20159;-54
2023/07/07 01:44:16;;;;;;;5.57;3.53;;;10.40;99.90;;;;;;5014585;28;20033;-55
2023/07/07 01:46:50;;;;;;;5.30;3.10;;;10.40;99.90;;;;;;5030825;28;20033;-51
2023/07/07 01:49:25;;;;;;;7.15;3.67;;;10.40;99.90;;;;;;5038969;28;20041;-54
2023/07/07 01:52:02;;;;;;;5.40;3.30;;;10.30;99.90;;;;;;5011264;28;20042;-55
2023/07/07 01:54:32;;;;;;;4.35;3.35;;;10.30;99.90;;;;;;5029460;28;20021;-56
2023/07/07 01:56:59;;;;;;;6.18;3.67;;;10.30;99.90;;;;;;5030495;28;20033;-53
2023/07/07 01:59:25;;;;;;;4.32;3.60;;;10.30;99.90;;;;;;5048131;28;20036;-58
2023/07/07 02:01:51;;;;;;;5.18;3.83;;;10.20;99.90;;;;;;5031201;28;20033;-57
2023/07/07 02:04:17;;;;;;;3.80;3.30;;;10.20;99.90;;;;;;5047731;28;20063;-52
2023/07/07 02:06:42;;;;;;;3.83;3.05;;;10.20;99.90;;;;;;5027264;28;20425;-55
2023/07/07 02:09:07;;;;;;;5.00;3.38;;;10.20;99.90;;;;;;5047727;28;20033;-56
2023/07/07 02:11:33;;;;;;;4.57;3.80;;;10.20;99.90;;;;;;5050509;28;20017;-54
2023/07/07 02:13:59;;;;;;;4.53;3.55;;;10.10;99.90;;;;;;5035168;28;20040;-53
2023/07/07 02:16:24;;;;;;;6.00;3.83;;;10.10;99.90;;;;;;5050259;28;20438;-50
2023/07/07 02:18:51;;;;;;;5.32;3.60;;;10.10;99.90;;;;;;5033870;28;20025;-52
2023/07/07 02:21:18;;;;;;;3.40;3.10;;;10.10;99.90;;;;;;5050126;28;20421;-51
2023/07/07 02:23:44;;;;;;;4.55;3.30;;;10.10;99.90;;;;;;5032725;28;20064;-50
2023/07/07 02:26:10;;;;;;;4.40;3.58;;;10.10;99.90;;;;;;5050061;28;20029;-51
2023/07/07 02:28:36;;;;;;;4.93;3.75;;;10.00;99.90;;;;;;5031548;28;20064;-52
2023/07/07 02:31:01;;;;;;;5.07;3.97;;;10.00;99.90;;;;;;5049839;28;20073;-51
2023/07/07 02:33:31;;;;;;;6.68;3.67;;;10.00;99.90;;;;;;5030367;28;20104;-48
2023/07/07 02:36:01;;;;;;;5.95;4.03;;;10.00;99.90;;;;;;5049776;28;20021;-53
2023/07/07 02:38:28;;;;;;;5.93;3.45;;;10.00;99.90;;;;;;5030183;28;20029;-49
2023/07/07 02:40:54;;;;;;;4.82;4.13;;;9.90;99.90;;;;;;5049871;28;20103;-51
2023/07/07 02:43:19;;;;;;;5.75;4.05;;;9.90;99.90;;;;;;5029337;28;20108;-52
2023/07/07 02:45:44;;;;;;;6.78;3.85;;;9.90;99.90;;;;;;5047696;28;20036;-53
2023/07/07 02:48:10;;;;;;;4.80;3.60;;;9.90;99.90;;;;;;5049019;28;20036;-48
2023/07/07 02:50:35;;;;;;;6.15;3.95;;;9.90;99.90;;;;;;5027838;28;20040;-50
2023/07/07 02:53:02;;;;;;;4.93;3.80;;;9.80;99.90;;;;;;5049449;28;20029;-52
2023/07/07 02:55:27;;;;;;;4.65;3.70;;;9.80;99.90;;;;;;5027760;28;20052;-48
2023/07/07 02:57:53;;;;;;;7.75;4.43;;;9.80;99.90;;;;;;5048474;28;20061;-50
2023/07/07 03:00:19;;;;;;;6.65;4.35;;;9.80;99.90;;;;;;5027407;28;20044;-53
2023/07/07 03:02:46;;;;;;;6.47;3.45;;;9.80;99.90;;;;;;5048818;28;20063;-51
2023/07/07 03:05:12;;;;;;;5.22;3.58;;;9.80;99.90;;;;;;5028504;28;20385;-52
2023/07/07 03:07:37;;;;;;;4.75;3.88;;;9.80;99.90;;;;;;5049365;28;20028;-49
2023/07/07 03:10:05;;;;;;;4.88;3.47;;;9.80;99.90;;;;;;5028131;28;20037;-54
2023/07/07 03:12:30;;;;;;;4.13;3.72;;;9.90;99.90;;;;;;5048796;28;20111;-50
2023/07/07 03:14:56;;;;;;;3.83;3.15;;;9.90;99.90;;;;;;5028024;28;20116;-51
2023/07/07 03:17:22;;;;;;;6.03;4.32;;;9.90;99.90;;;;;;5048401;28;20044;-51
2023/07/07 03:19:47;;;;;;;7.43;4.35;;;9.90;99.90;;;;;;5027840;28;20025;-49
2023/07/07 03:22:13;;;;;;;6.68;3.50;;;9.90;99.90;;;;;;5048440;28;20726;-50
2023/07/07 03:24:38;;;;;;;7.45;3.95;;;10.00;99.90;;;;;;5027818;28;20109;-49
2023/07/07 03:27:04;;;;;;;6.15;4.10;;;10.00;99.90;;;;;;5048340;28;20479;-54
2023/07/07 03:29:30;;;;;;;5.22;3.95;;;10.00;99.90;;;;;;5027682;28;20127;-53
2023/07/07 03:31:55;;;;;;;6.38;4.07;;;10.00;99.90;;;;;;5046315;28;20037;-51
2023/07/07 03:34:21;;;;;;;7.15;4.15;;;10.10;99.90;;;;;;5029814;28;20033;-53
2023/07/07 03:36:46;;;;;;;9.65;4.50;;;10.20;99.90;;;;;;5036470;28;20053;-54
2023/07/07 03:39:12;;;;;;;4.75;3.78;;;10.20;99.90;;;;;;5048998;28;20025;-52
2023/07/07 03:41:37;;;;;;;6.70;4.00;;;10.40;99.90;;;;;;5027879;28;20051;-52
2023/07/07 03:44:03;;;;;;;5.55;3.90;;;11.00;99.90;;;;;;5029155;28;20131;-51
2023/07/07 03:46:29;;;;;;;3.97;3.42;;;11.80;99.90;;;;;;5041577;28;20034;-51
2023/07/07 03:48:56;;;;;;;5.75;3.85;;;12.60;99.90;;;;;;5029374;28;20026;-54
2023/07/07 03:51:24;;;;;;;4.32;3.22;;;13.40;99.90;;;;;;5042627;28;20033;-52
2023/07/07 03:53:50;;;;;;;4.22;3.17;;;14.20;99.90;;;;;;5029209;28;20025;-53
2023/07/07 03:56:16;;;;;;;3.72;2.97;;;14.90;98.30;;;;;;5046280;28;20060;-50
2023/07/07 03:58:42;;;;;;;4.97;3.40;;;15.60;95.70;;;;;;5049000;28;20028;-52
2023/07/07 04:01:10;;;;;;;6.80;3.30;;;16.20;93.40;;;;;;5043556;28;20026;-53
2023/07/07 04:03:36;;;;;;;4.82;2.70;;;16.80;92.90;;;;;;5029129;28;20025;-54
2023/07/07 04:06:02;;;;;;;3.50;2.60;;;17.40;91.20;;;;;;5042030;28;20082;-51
2023/07/07 04:08:29;;;;;;;3.60;2.80;;;18.00;89.20;;;;;;5029045;28;20033;-53
2023/07/07 04:11:04;;;;;;;3.42;2.50;;;18.50;87.10;;;;;;5046645;28;20076;-53
2023/07/07 04:13:32;;;;;;;3.00;2.70;;;19.00;82.80;;;;;;5033133;28;20033;-53
2023/07/07 04:16:00;;;;;;;2.60;2.40;;;19.40;81.20;;;;;;5049954;28;20098;-50
2023/07/07 04:18:25;;;;;;;3.00;2.70;;;19.80;79.80;;;;;;5033063;28;20029;-52
2023/07/07 04:20:50;;;;;;;4.30;2.90;;;20.30;78.40;;;;;;5051917;28;20397;-50
2023/07/07 04:23:16;;;;;;;2.85;2.58;;;20.80;75.30;;;;;;5031195;28;20138;-48
2023/07/07 04:25:45;;;;;;;5.63;2.70;;;21.30;73.70;;;;;;5051985;28;20029;-52
2023/07/07 04:28:10;;;;;;;2.92;2.45;;;21.80;71.30;;;;;;5030828;28;20030;-53
2023/07/07 04:30:36;;;;;;;2.65;2.45;;;22.30;69.10;;;;;;5051887;28;20051;-50
2023/07/07 04:33:02;;;;;;;4.28;2.75;;;22.70;66.50;;;;;;5031427;28;20144;-49
2023/07/07 04:35:27;;;;;;;2.60;2.22;;;23.10;63.50;;;;;;5049781;28;20123;-47
2023/07/07 04:37:53;;;;;;;3.25;2.45;;;23.50;62.30;;;;;;5033292;28;20110;-50
2023/07/07 04:40:18;;;;;;;3.88;2.92;;;23.90;60.70;;;;;;5051670;28;20504;-49
2023/07/07 04:42:44;;;;;;;2.78;2.58;;;24.10;59.10;;;;;;5040421;28;20033;-52
2023/07/07 04:45:09;;;;;;;2.75;2.45;;;24.50;57.50;;;;;;5032798;28;20030;-55
2023/07/07 04:47:35;;;;;;;2.47;2.28;;;25.00;56.30;;;;;;5035533;28;20033;-51
2023/07/07 04:50:00;;;;;;;4.32;2.42;;;25.50;53.90;;;;;;5047650;28;20451;-51
2023/07/07 04:52:26;;;;;;;4.53;2.50;;;25.90;52.20;;;;;;5052122;28;20025;-48
2023/07/07 04:54:52;;;;;;;3.47;2.30;;;26.40;50.60;;;;;;5030946;28;20044;-51
2023/07/07 04:57:17;;;;;;;2.80;2.25;;;26.90;48.60;;;;;;5051456;28;20033;-48
2023/07/07 04:59:43;;;;;;;3.05;2.63;;;27.20;46.20;;;;;;5045283;28;20036;-53
2023/07/07 05:02:08;;;;;;;3.00;2.65;;;27.60;44.80;;;;;;5051720;28;20061;-52
2023/07/07 05:04:34;;;;;;;3.90;2.63;;;27.90;43.20;;;;;;5031944;28;20033;-48
2023/07/07 05:07:00;;;;;;;4.07;2.20;;;28.20;41.50;;;;;;5046010;28;20362;-52
2023/07/07 05:09:25;;;;;;;4.07;1.90;;;28.50;39.90;;;;;;5030465;28;20501;-51
2023/07/07 05:11:51;;;;;;;2.70;2.40;;;28.80;38.20;;;;;;5030146;28;20444;-52
2023/07/07 05:14:16;;;;;;;2.67;2.13;;;29.10;36.30;;;;;;5050914;28;20057;-52
2023/07/07 05:16:42;;;;;;;2.30;1.75;;;29.50;34.60;;;;;;5030097;28;20059;-50
2023/07/07 05:19:07;;;;;;;2.00;1.80;;;30.00;32.60;;;;;;5050330;28;20035;-51
2023/07/07 05:21:33;;;;;;;3.08;2.10;;;30.60;29.80;;;;;;5029964;28;20018;-48
2023/07/07 05:23:59;;;;;;;2.00;1.80;;;31.20;27.40;;;;;;5037898;28;20033;-52
2023/07/07 05:26:27;;;;;;;2.25;1.80;;;31.60;26.00;;;;;;5033622;28;20025;-49
2023/07/07 05:28:53;;;;;;;2.40;2.20;;;32.20;23.90;;;;;;5050390;28;20025;-52
2023/07/07 05:31:19;;;;;;;2.20;1.88;;;32.90;21.50;;;;;;5043627;28;20025;-52
2023/07/07 05:33:45;;;;;;;1.90;1.55;;;33.30;18.60;;;;;;5050796;28;20036;-49
2023/07/07 05:36:10;;;;;;;1.88;1.67;;;33.70;16.80;;;;;;5029668;28;20037;-51
2023/07/07 05:38:39;;;;;;;3.88;1.60;;;34.20;15.60;;;;;;5050074;28;20032;-48
2023/07/07 05:41:05;;;;;;;1.85;1.50;;;34.50;14.30;;;;;;5029041;28;20501;-50
2023/07/07 05:43:30;;;;;;;2.28;1.63;;;35.00;13.10;;;;;;5049999;28;20114;-47
2023/07/07 05:45:58;;;;;;;1.55;1.38;;;35.50;11.60;;;;;;5029472;28;20202;-50
2023/07/07 05:48:24;;;;;;;1.92;1.42;;;35.90;7.10;;;;;;5050143;28;20032;-52
2023/07/07 05:50:51;;;;;;;2.40;1.60;;;35.80;8.50;;;;;;5039563;28;20040;-52
2023/07/07 05:53:16;;;;;;;1.33;1.23;;;36.00;8.10;;;;;;5030903;28;20034;-50
2023/07/07 05:55:46;;;;;;;1.75;1.40;;;36.50;7.30;;;;;;5047793;28;20071;-51
2023/07/07 05:58:12;;;;;;;3.05;1.30;;;37.10;6.50;;;;;;5030745;28;20025;-49
2023/07/07 06:00:38;;;;;;;2.42;1.67;;;37.50;5.60;;;;;;5047819;28;20033;-59
2023/07/07 06:03:03;;;;;;;1.52;1.42;;;37.50;4.80;;;;;;5039314;28;20037;-57
2023/07/07 06:05:29;;;;;;;1.98;1.17;;;37.80;4.20;;;;;;5034738;28;20061;-56
2023/07/07 06:07:55;;;;;;;1.52;1.30;;;38.50;3.60;;;;;;5029158;28;20574;-54
2023/07/07 06:10:22;;;;;;;1.30;1.17;;;38.80;2.70;;;;;;5049939;28;20045;-56
2023/07/07 06:12:47;;;;;;;1.67;1.33;;;39.10;1.60;;;;;;5036687;28;20025;-56
2023/07/07 06:15:13;;;;;;;6.63;1.52;;;39.60;1.00;;;;;;5031025;28;20032;-60
2023/07/07 06:17:39;;;;;;;1.50;1.17;;;39.70;1.00;;;;;;5041262;28;20388;-60
2023/07/07 06:20:04;;;;;;;1.02;1.00;;;39.80;1.00;;;;;;5030532;28;20030;-60
2023/07/07 06:22:30;;;;;;;1.08;1.00;;;40.00;1.00;;;;;;5041163;28;20388;-60
2023/07/07 06:24:56;;;;;;;1.10;1.00;;;40.20;1.00;;;;;;5030345;28;20069;-59
2023/07/07 06:27:21;;;;;;;2.15;1.00;;;40.40;1.00;;;;;;5047501;28;20049;-60
2023/07/07 06:29:47;;;;;;;2.40;1.52;;;40.60;1.00;;;;;;5049786;28;20512;-59
2023/07/07 06:32:12;;;;;;;1.10;1.00;;;40.90;1.00;;;;;;5045206;28;20036;-60
2023/07/07 06:34:38;;;;;;;1.33;0.90;;;41.30;1.00;;;;;;5029978;28;20030;-59
2023/07/07 06:37:04;;;;;;;1.27;1.05;;;41.00;1.00;;;;;;5045707;28;20025;-60
2023/07/07 06:39:29;;;;;;;1.20;1.10;;;40.90;1.00;;;;;;5028809;28;20049;-59
2023/07/07 06:41:56;;;;;;;2.30;1.35;;;41.30;1.00;;;;;;5045576;28;20067;-59
2023/07/07 06:44:22;;;;;;;2.75;1.30;;;41.70;1.00;;;;;;5030250;28;20028;-60
2023/07/07 06:46:48;;;;;;;1.65;1.48;;;41.80;1.00;;;;;;5049282;28;20036;-60
2023/07/07 06:49:13;;;;;;;1.13;1.00;;;42.00;1.00;;;;;;5048017;28;20440;-59
2023/07/07 06:51:39;;;;;;;0.93;0.90;;;41.70;1.00;;;;;;5049648;28;20401;-60
2023/07/07 06:54:05;;;;;;;1.08;0.98;;;41.80;1.00;;;;;;5028518;28;20228;-60
2023/07/07 06:56:30;;;;;;;4.03;1.30;;;41.90;1.00;;;;;;5048970;28;20477;-61
2023/07/07 06:58:56;;;;;;;2.13;1.52;;;42.30;1.00;;;;;;5028393;28;20109;-60
2023/07/07 07:01:21;;;;;;;2.25;1.17;;;42.40;1.00;;;;;;5047640;28;20056;-60
2023/07/07 07:03:47;;;;;;;1.83;1.23;;;42.60;1.00;;;;;;5028230;28;20710;-60
2023/07/07 07:06:13;;;;;;;1.88;1.20;;;42.60;1.00;;;;;;5043632;28;20043;-60
2023/07/07 07:08:38;;;;;;;1.45;1.20;;;42.60;1.00;;;;;;5042941;28;20040;-59
2023/07/07 07:11:06;;;;;;;1.55;1.00;;;42.60;1.00;;;;;;5049367;28;20025;-59
2023/07/07 07:13:32;;;;;;;2.35;1.13;;;42.60;1.00;;;;;;5027887;28;20103;-57
2023/07/07 07:15:57;;;;;;;2.60;1.50;;;42.90;1.00;;;;;;5048747;28;20481;-60
2023/07/07 07:18:23;;;;;;;1.75;1.05;;;43.20;1.00;;;;;;5028270;28;20037;-61
2023/07/07 07:20:49;;;;;;;1.15;1.00;;;43.40;1.00;;;;;;5048381;28;20147;-59
2023/07/07 07:23:15;;;;;;;1.15;1.05;;;43.80;1.00;;;;;;5027902;28;20120;-60
2023/07/07 07:25:42;;;;;;;4.05;1.40;;;43.80;1.00;;;;;;5048505;28;20028;-60
2023/07/07 07:28:08;;;;;;;1.20;1.10;;;44.20;1.00;;;;;;5038193;28;20040;-60
2023/07/07 07:30:34;;;;;;;0.95;0.95;;;44.20;1.00;;;;;;5048907;28;20053;-59
2023/07/07 07:33:03;;;;;;;1.38;1.20;;;44.10;1.00;;;;;;5027899;28;20076;-60
2023/07/07 07:35:29;;;;;;;1.33;1.20;;;43.90;1.00;;;;;;5048834;28;20630;-59
2023/07/07 07:37:54;;;;;;;1.17;1.08;;;44.10;1.00;;;;;;5027658;28;20040;-59
2023/07/07 07:40:23;;;;;;;1.10;1.00;;;44.00;1.00;;;;;;5048412;28;20033;-61
2023/07/07 07:42:48;;;;;;;3.60;1.58;;;44.00;1.00;;;;;;5027440;28;20025;-60
2023/07/07 07:45:18;;;;;;;1.83;1.17;;;44.20;1.00;;;;;;5048053;28;20021;-60
2023/07/07 07:47:43;;;;;;;1.23;1.13;;;43.80;1.00;;;;;;5033939;28;20033;-59
2023/07/07 07:50:09;;;;;;;1.00;1.00;;;43.60;1.00;;;;;;5048821;28;20035;-60
2023/07/07 07:52:34;;;;;;;1.20;1.10;;;44.20;1.00;;;;;;5040674;28;20071;-59
2023/07/07 07:55:00;;;;;;;1.25;0.98;;;44.60;1.00;;;;;;5028880;28;20112;-61
2023/07/07 07:57:25;;;;;;;1.20;0.95;;;44.50;1.00;;;;;;5041475;28;20033;-60
2023/07/07 07:59:51;;;;;;;1.20;1.10;;;44.80;1.00;;;;;;5029046;28;20874;-60
2023/07/07 08:02:16;;;;;;;1.10;1.00;;;44.50;1.00;;;;;;5042655;28;20283;-60
2023/07/07 08:04:42;;;;;;;1.00;1.00;;;43.70;1.00;;;;;;5025176;28;20560;-60
2023/07/07 08:07:09;;;;;;;1.35;1.00;;;43.00;1.00;;;;;;5046741;28;20029;-60
2023/07/07 08:09:34;;;;;;;1.00;1.00;;;43.20;1.00;;;;;;5048907;28;20473;-59
2023/07/07 08:12:03;;;;;;;1.52;1.00;;;43.70;1.00;;;;;;5045738;28;20112;-60
2023/07/07 08:14:30;;;;;;;1.23;1.13;;;44.10;1.00;;;;;;5029218;28;20049;-61
2023/07/07 08:17:04;;;;;;;3.00;1.30;;;43.70;1.00;;;;;;5045694;28;20029;-60
2023/07/07 08:19:30;;;;;;;;;;;41.90;1.00;;;;;;5029396;28;20028;-60
2023/07/07 08:21:57;;;;;;;1.17;1.05;;;41.70;1.00;;;;;;5046221;28;20383;-59
2023/07/07 08:24:24;;;;;;;1.42;1.17;;;41.90;1.00;;;;;;5049068;28;20013;-60
2023/07/07 08:26:49;;;;;;;2.20;1.00;;;42.30;1.00;;;;;;5029166;28;20030;-60
2023/07/07 08:29:15;;;;;;;1.10;0.98;;;42.40;1.00;;;;;;5046407;28;20079;-60
2023/07/07 08:31:40;;;;;;;1.13;0.98;;;42.10;1.00;;;;;;5048950;28;20501;-60
2023/07/07 08:34:06;;;;;;;1.48;1.13;;;42.20;1.00;;;;;;5027596;28;20030;-60
2023/07/07 08:36:32;;;;;;;1.35;0.90;;;42.00;1.00;;;;;;5047970;28;20025;-59
2023/07/07 08:39:31;;;;;;;2.00;1.00;;;41.20;1.00;;;;;;5027405;28;20053;-59
2023/07/07 08:42:01;;;;;;;1.27;1.00;;;40.00;1.00;;;;;;5010043;28;20342;-59
2023/07/07 08:44:29;;;;;;;0.93;0.77;;;38.60;1.00;;;;;;5028894;28;20033;-60
2023/07/07 08:47:07;;;;;;;1.30;1.20;;;38.20;1.00;;;;;;5046181;28;20033;-59
2023/07/07 08:49:52;;;;;;;1.83;1.17;;;36.70;1.00;;;;;;5048811;28;20129;-58
2023/07/07 08:52:55;;;;;;;0.98;0.98;;;35.30;1.00;;;;;;5010798;28;20039;-61
2023/07/07 08:55:39;;;;;;;2.28;1.10;;;35.40;1.00;;;;;;5028927;28;20048;-60
2023/07/07 08:58:25;;;;;;;1.60;1.30;;;35.20;1.00;;;;;;5019601;28;20038;-59
2023/07/07 09:01:18;;;;;;;1.98;1.33;;;35.50;1.00;;;;;;5012490;28;20037;-59
2023/07/07 09:03:57;;;;;;;1.30;1.20;;;35.90;1.00;;;;;;5026096;28;20401;-60
2023/07/07 09:06:44;;;;;;;1.33;0.90;;;36.00;1.00;;;;;;5009911;28;20108;-60
2023/07/07 09:09:31;;;;;;;1.60;0.90;;;36.30;1.00;;;;;;5029668;28;20382;-59
2023/07/07 09:12:18;;;;;;;1.42;0.98;;;36.40;1.00;;;;;;5011163;28;20030;-59
2023/07/07 09:14:47;;;;;;;2.67;0.90;;;36.30;1.00;;;;;;5032074;28;20022;-60
2023/07/07 09:17:22;;;;;;;1.88;1.35;;;36.20;1.00;;;;;;5046664;28;20441;-59
2023/07/07 09:19:50;;;;;;;1.15;0.90;;;35.70;1.00;;;;;;5031934;28;20017;-59
2023/07/07 09:22:33;;;;;;;1.90;1.30;;;35.20;1.00;;;;;;5046090;28;20029;-60
2023/07/07 09:25:20;;;;;;;1.08;0.98;;;34.00;1.00;;;;;;5031866;28;20558;-59
2023/07/07 09:27:54;;;;;;;1.60;1.20;;;33.90;1.00;;;;;;5041507;28;20064;-59
2023/07/07 09:30:37;;;;;;;2.13;0.93;;;33.90;1.00;;;;;;5035289;28;20061;-60
2023/07/07 09:33:02;;;;;;;1.38;0.88;;;34.00;1.00;;;;;;5019865;28;20489;-59
2023/07/07 09:35:41;;;;;;;1.30;0.90;;;33.90;1.00;;;;;;5050653;28;20043;-59
2023/07/07 09:38:33;;;;;;;1.55;1.00;;;33.90;1.00;;;;;;5020466;28;20029;-59
2023/07/07 09:41:36;;;;;;;1.95;1.08;;;33.90;1.00;;;;;;5011781;28;20042;-60
2023/07/07 09:44:34;;;;;;;1.20;0.88;;;33.80;1.00;;;;;;5012875;28;20047;-60
2023/07/07 09:47:14;;;;;;;1.17;1.05;;;33.80;1.00;;;;;;5010851;28;20034;-59
2023/07/07 09:49:54;;;;;;;1.00;0.90;;;34.00;1.00;;;;;;5031261;28;20022;-59
2023/07/07 09:52:32;;;;;;;4.75;1.25;;;34.10;1.00;;;;;;5013690;28;20068;-60
2023/07/07 09:54:59;;;;;;;2.03;1.27;;;33.60;1.00;;;;;;5031189;28;20473;-59
2023/07/07 09:57:30;;;;;;;1.60;1.23;;;33.30;1.00;;;;;;5044098;28;20026;-59
2023/07/07 09:59:59;;;;;;;2.47;1.30;;;33.00;1.00;;;;;;5031184;28;20037;-60
2023/07/07 10:02:25;;;;;;;2.15;1.27;;;32.10;1.00;;;;;;5044101;28;20025;-59
2023/07/07 10:04:57;;;;;;;3.92;1.40;;;31.90;1.00;;;;;;5028646;28;20303;-59
2023/07/07 10:07:24;;;;;;;1.88;1.20;;;31.70;1.00;;;;;;5044583;28;20053;-58
2023/07/07 10:09:50;;;;;;;2.00;1.30;;;31.70;1.00;;;;;;5030432;28;20053;-59
2023/07/07 10:12:17;;;;;;;1.35;0.95;;;31.90;1.00;;;;;;5044695;28;20029;-59
2023/07/07 10:14:43;;;;;;;1.30;1.13;;;31.90;1.00;;;;;;5030979;28;20159;-54
2023/07/07 10:17:09;;;;;;;1.05;0.90;;;32.00;1.00;;;;;;5045645;28;20505;-55
2023/07/07 10:19:43;;;;;;;1.10;1.00;;;31.90;1.00;;;;;;5030880;28;20028;-54
2023/07/07 10:22:13;;;;;;;2.20;1.20;;;31.70;1.00;;;;;;5045760;28;20040;-55
2023/07/07 10:24:38;;;;;;;1.83;1.35;;;31.20;1.00;;;;;;5030752;28;20033;-57
2023/07/07 10:27:04;;;;;;;1.30;1.00;;;31.00;1.00;;;;;;5047679;28;20113;-53
2023/07/07 10:29:39;;;;;;;1.58;1.00;;;30.90;1.00;;;;;;5045210;28;20045;-53
2023/07/07 10:32:05;;;;;;;2.42;1.20;;;30.90;1.00;;;;;;5030540;28;20686;-55
2023/07/07 10:34:37;;;;;;;3.10;1.70;;;30.80;1.00;;;;;;5050340;28;20035;-53
2023/07/07 10:37:02;;;;;;;3.15;1.10;;;30.70;1.00;;;;;;5046776;28;20064;-56
2023/07/07 10:39:30;;;;;;;2.45;1.50;;;30.50;1.00;;;;;;5030479;28;20076;-55
2023/07/07 10:41:56;;;;;;;2.55;1.40;;;30.40;1.00;;;;;;5047276;28;20041;-56
2023/07/07 10:44:26;;;;;;;1.90;1.02;;;30.20;1.00;;;;;;5030424;28;20116;-54
2023/07/07 10:46:52;;;;;;;1.73;1.27;;;30.00;1.00;;;;;;5047459;28;20041;-54
2023/07/07 10:49:20;;;;;;;1.15;1.08;;;30.00;1.00;;;;;;5030145;28;20068;-52
2023/07/07 10:52:11;;;;;;;1.20;1.00;;;29.80;1.00;;;;;;5047686;28;20094;-57
2023/07/07 10:54:53;;;;;;;2.42;1.27;;;29.80;1.00;;;;;;5023786;28;20021;-57
2023/07/07 10:57:30;;;;;;;1.00;1.00;;;29.70;1.00;;;;;;5027926;28;20031;-55
2023/07/07 11:00:32;;;;;;;1.20;1.10;;;29.60;1.00;;;;;;5020601;28;20156;-56
2023/07/07 11:03:19;;;;;;;1.40;1.30;;;29.60;1.00;;;;;;5009285;28;20046;-55
2023/07/07 11:05:58;;;;;;;1.60;1.27;;;29.50;1.00;;;;;;5028099;28;20037;-56
2023/07/07 11:08:49;;;;;;;2.45;1.00;;;29.40;1.00;;;;;;5008698;28;20073;-56
2023/07/07 11:11:39;;;;;;;1.20;0.82;;;29.30;1.00;;;;;;5027501;28;20098;-56
2023/07/07 11:14:21;;;;;;;1.52;1.17;;;29.00;1.00;;;;;;5014121;28;20049;-57
2023/07/07 11:16:58;;;;;;;1.80;1.20;;;28.90;1.00;;;;;;5009148;28;20030;-56
2023/07/07 11:19:48;;;;;;;2.58;1.40;;;28.90;1.00;;;;;;5017036;28;20116;-55
2023/07/07 11:22:53;;;;;;;4.30;1.20;;;28.90;1.00;;;;;;5022875;28;20732;-53
2023/07/07 11:25:28;;;;;;;1.77;1.17;;;28.90;1.00;;;;;;5012962;28;20100;-55
2023/07/07 11:28:19;;;;;;;3.83;1.63;;;28.80;1.00;;;;;;5028577;28;20033;-53
2023/07/07 11:30:57;;;;;;;1.70;0.98;;;28.80;1.00;;;;;;5013817;28;20034;-54
2023/07/07 11:33:29;;;;;;;1.38;1.10;;;28.80;1.00;;;;;;5028485;28;20022;-55
2023/07/07 11:36:24;;;;;;;1.20;1.10;;;28.70;1.00;;;;;;5015284;28;20033;-57
2023/07/07 11:39:10;;;;;;;0.80;0.80;;;28.70;1.00;;;;;;5008891;28;20022;-53
2023/07/07 11:41:41;;;;;;;;;;;28.70;1.00;;;;;;5021067;28;20026;-55
2023/07/07 11:44:48;;;;;;;3.00;1.08;;;28.60;1.00;;;;;;5047615;28;19917;-55
2023/07/07 11:47:16;;;;;;;;;;;28.40;1.00;;;;;;5026278;28;20482;-55
2023/07/07 11:49:56;;;;;;;1.25;1.10;;;28.30;1.00;;;;;;5047192;28;19999;-55
2023/07/07 11:52:32;;;;;;;1.20;1.10;;;28.30;1.00;;;;;;5024420;28;20562;-55
2023/07/07 11:55:35;;;;;;;5.15;1.70;;;28.30;1.00;;;;;;5007173;28;20026;-54
2023/07/07 11:58:09;;;;;;;1.52;1.20;;;28.30;1.50;;;;;;5028959;28;20500;-54
2023/07/07 12:00:56;;;;;;;1.40;1.30;;;28.20;1.10;;;;;;5046874;28;20098;-54
2023/07/07 12:03:30;;;;;;;1.88;1.20;;;28.30;1.00;;;;;;5048142;28;20013;-58
2023/07/07 12:05:59;;;;;;;3.08;1.10;;;28.20;1.00;;;;;;5012731;28;20171;-58
2023/07/07 12:08:36;;;;;;;2.30;1.40;;;28.10;1.00;;;;;;5049055;28;20055;-55
2023/07/07 12:11:04;;;;;;;1.33;1.23;;;28.10;1.00;;;;;;5016943;28;20022;-53
2023/07/07 12:13:35;;;;;;;1.45;1.27;;;28.10;1.00;;;;;;5048696;28;20040;-56
2023/07/07 12:16:19;;;;;;;1.77;1.25;;;28.10;1.00;;;;;;5012090;28;20033;-55
2023/07/07 12:18:49;;;;;;;2.45;1.20;;;28.00;1.00;;;;;;5022883;28;20037;-56
2023/07/07 12:21:25;;;;;;;1.67;1.38;;;27.90;1.00;;;;;;5027257;28;20075;-55
2023/07/07 12:24:09;;;;;;;1.30;1.10;;;27.80;1.00;;;;;;5029303;28;20034;-55
2023/07/07 12:26:43;;;;;;;2.45;1.40;;;27.60;1.00;;;;;;5015202;28;20047;-55
2023/07/07 12:29:12;;;;;;;1.20;1.10;;;27.40;1.00;;;;;;5013168;28;20022;-55
2023/07/07 12:31:37;;;;;;;1.27;1.10;;;27.30;1.00;;;;;;5039285;28;20544;-56
2023/07/07 12:34:46;;;;;;;4.20;1.30;;;27.30;1.00;;;;;;5052073;28;20029;-55
2023/07/07 12:37:18;;;;;;;1.90;1.35;;;27.40;1.30;;;;;;5023996;28;20036;-54
2023/07/07 12:40:09;;;;;;;1.48;1.20;;;27.50;1.00;;;;;;5013098;28;20068;-55
2023/07/07 12:42:37;;;;;;;2.45;1.30;;;27.40;1.00;;;;;;5027201;28;20096;-55
2023/07/07 12:45:25;;;;;;;2.42;1.63;;;27.30;1.00;;;;;;5044205;28;20108;-54
2023/07/07 12:47:59;;;;;;;1.77;1.58;;;27.10;1.30;;;;;;5032196;28;20049;-55
2023/07/07 12:50:37;;;;;;;1.33;1.10;;;27.10;1.30;;;;;;5019990;28;20115;-54
2023/07/07 12:53:09;;;;;;;5.10;1.45;;;27.00;1.40;;;;;;5052218;28;20021;-51
2023/07/07 12:55:55;;;;;;;3.47;1.20;;;26.90;1.10;;;;;;5020974;28;20046;-55
2023/07/07 12:58:35;;;;;;;1.95;1.30;;;26.90;1.10;;;;;;5028585;28;20064;-55
2023/07/07 13:01:14;;;;;;;2.03;1.20;;;26.90;1.10;;;;;;5012754;28;20030;-56
2023/07/07 13:04:01;;;;;;;2.28;1.23;;;26.80;1.00;;;;;;5012597;28;20037;-56
2023/07/07 13:06:40;;;;;;;1.80;1.30;;;26.80;3.20;;;;;;5041030;28;20559;-55
2023/07/07 13:09:16;;;;;;;1.63;1.20;;;26.90;1.60;;;;;;5032259;28;20025;-54
2023/07/07 13:12:02;;;;;;;4.00;1.30;;;27.00;1.50;;;;;;5045766;28;20065;-55